Time;durP1;ratioP1;P1;durP2;ratioP2;P2;SDS_P1;SDS_P2;PMS_P1;PMS_P2;Temp;Humidity;BMP_temperature;BMP_pressure;BME280_temperature;BME280_humidity;BME280_pressure;Samples;Min_cycle;Max_cycle;Signal;HPM_P1;HPM_P2
2022/10/02 00:01:31;;;;;;;7.05;4.93;;;;;;;15.78;100.00;97369.31;10334245;28;20025;-59
2022/10/02 00:06:42;;;;;;;5.53;4.50;;;;;;;15.56;100.00;97369.06;10332962;28;20057;-59
2022/10/02 00:11:45;;;;;;;6.82;5.50;;;;;;;15.48;100.00;97386.69;10334004;28;20473;-59
2022/10/02 00:16:49;;;;;;;7.55;4.90;;;;;;;15.40;100.00;97379.06;10333223;28;20067;-59
2022/10/02 00:21:53;;;;;;;9.88;6.00;;;;;;;15.43;100.00;97383.34;10332891;28;20044;-59
2022/10/02 00:27:18;;;;;;;8.95;6.85;;;;;;;15.52;100.00;97372.66;10329960;28;20065;-59
2022/10/02 00:32:35;;;;;;;10.07;6.65;;;;;;;15.61;100.00;97382.88;10327439;28;20567;-59
2022/10/02 00:38:03;;;;;;;9.80;7.25;;;;;;;15.67;100.00;97385.34;10331486;28;20103;-59
2022/10/02 00:43:25;;;;;;;9.50;7.22;;;;;;;15.70;100.00;97380.91;10334078;28;20512;-59
2022/10/02 00:48:51;;;;;;;14.05;7.43;;;;;;;15.72;100.00;97384.34;10336590;28;20076;-59
2022/10/02 00:54:12;;;;;;;11.20;7.97;;;;;;;15.66;100.00;97373.13;10336752;28;20069;-59
2022/10/02 00:59:36;;;;;;;9.52;7.85;;;;;;;15.66;100.00;97374.91;10336052;28;20083;-59
2022/10/02 01:04:37;;;;;;;10.25;8.20;;;;;;;15.53;100.00;97356.09;10335646;28;20061;-59
2022/10/02 01:09:38;;;;;;;11.05;7.65;;;;;;;15.53;100.00;97363.94;10335497;28;20072;-59
2022/10/02 01:14:39;;;;;;;10.82;8.27;;;;;;;15.53;100.00;97361.31;10335540;28;20065;-59
2022/10/02 01:19:40;;;;;;;10.90;7.72;;;;;;;15.49;100.00;97349.22;10335335;28;20080;-59
2022/10/02 01:24:51;;;;;;;11.50;6.80;;;;;;;15.52;100.00;97356.97;10333909;28;20069;-59
2022/10/02 01:30:00;;;;;;;12.38;7.18;;;;;;;15.51;100.00;97349.19;10335085;28;20070;-59
2022/10/02 01:34:59;;;;;;;8.07;5.80;;;;;;;15.52;100.00;97343.88;10334230;28;20528;-59
2022/10/02 01:40:04;;;;;;;7.95;6.00;;;;;;;15.48;100.00;97347.47;10334756;28;20065;-59
2022/10/02 01:45:05;;;;;;;10.60;6.10;;;;;;;15.46;100.00;97341.47;10334718;28;20065;-59
2022/10/02 01:50:23;;;;;;;9.00;6.57;;;;;;;15.29;100.00;97348.88;10334034;28;20076;-59
2022/10/02 01:56:15;;;;;;;10.45;6.80;;;;;;;15.10;100.00;97374.63;10334251;28;20076;-59
2022/10/02 02:01:23;;;;;;;10.23;6.88;;;;;;;15.02;100.00;97380.06;10287950;28;20064;-59
2022/10/02 02:06:48;;;;;;;13.23;9.25;;;;;;;14.96;100.00;97393.25;10324456;28;20469;-59
2022/10/02 02:11:58;;;;;;;13.60;8.95;;;;;;;14.92;100.00;97409.91;10333591;28;20065;-59
2022/10/02 02:17:09;;;;;;;12.13;9.32;;;;;;;14.91;100.00;97402.97;10332863;28;20068;-59
2022/10/02 02:22:28;;;;;;;11.38;8.82;;;;;;;14.88;100.00;97416.97;10333438;28;20057;-59
2022/10/02 02:27:32;;;;;;;10.80;8.60;;;;;;;14.74;100.00;97424.28;10335788;28;20065;-59
2022/10/02 02:32:37;;;;;;;12.30;8.95;;;;;;;14.74;100.00;97416.44;10335362;28;20081;-59
2022/10/02 02:37:39;;;;;;;12.18;9.50;;;;;;;14.70;100.00;97428.69;10336062;28;20072;-59
2022/10/02 02:42:43;;;;;;;13.45;9.27;;;;;;;14.64;100.00;97441.88;10335692;28;20049;-59
2022/10/02 02:48:11;;;;;;;13.30;9.63;;;;;;;14.59;100.00;97430.66;10335339;28;20568;-59
2022/10/02 02:53:21;;;;;;;14.93;10.48;;;;;;;14.54;100.00;97440.34;10334001;28;20069;-59
2022/10/02 02:58:26;;;;;;;17.75;10.75;;;;;;;14.45;100.00;97448.38;10335515;28;20531;-59
2022/10/02 03:03:25;;;;;;;14.50;10.00;;;;;;;14.36;100.00;97455.53;10334016;28;20053;-59
2022/10/02 03:08:30;;;;;;;;;;;;;;;14.29;100.00;97458.28;10335115;28;20150;-59
2022/10/02 03:13:36;;;;;;;16.33;10.23;;;;;;;14.23;100.00;97464.50;10335116;28;19960;-59
2022/10/02 03:18:46;;;;;;;15.30;9.43;;;;;;;14.19;100.00;97457.59;10334284;28;20510;-59
2022/10/02 03:23:57;;;;;;;12.43;8.18;;;;;;;14.02;100.00;97485.78;10333875;28;20069;-59
2022/10/02 03:29:00;;;;;;;14.32;8.95;;;;;;;13.88;100.00;97488.66;10331493;28;20062;-59
2022/10/02 03:34:01;;;;;;;15.32;10.93;;;;;;;13.85;100.00;97476.53;10330135;28;20081;-59
2022/10/02 03:39:04;;;;;;;20.30;13.68;;;;;;;13.67;100.00;97515.97;10330346;28;20061;-59
2022/10/02 03:44:03;;;;;;;23.95;15.68;;;;;;;13.57;100.00;97497.88;10330689;28;20053;-59
2022/10/02 03:49:02;;;;;;;23.15;16.30;;;;;;;13.55;100.00;97515.28;10330078;28;20061;-59
2022/10/02 03:54:01;;;;;;;23.30;15.25;;;;;;;13.62;100.00;97512.59;10330214;28;20033;-59
2022/10/02 03:59:04;;;;;;;30.60;16.45;;;;;;;13.65;100.00;97515.13;10330439;28;20715;-59
2022/10/02 04:04:11;;;;;;;24.15;15.77;;;;;;;13.58;100.00;97519.59;10329630;28;20555;-59
2022/10/02 04:09:48;;;;;;;20.63;13.70;;;;;;;13.54;100.00;97526.63;10329825;28;20072;-59
2022/10/02 04:14:53;;;;;;;17.30;11.75;;;;;;;13.54;100.00;97530.97;10331209;28;20539;-59
2022/10/02 04:19:58;;;;;;;18.60;11.90;;;;;;;13.53;100.00;97540.50;10338967;28;20072;-59
2022/10/02 04:25:19;;;;;;;20.85;12.57;;;;;;;13.53;100.00;97537.88;10338042;28;20519;-59
2022/10/02 04:30:19;;;;;;;22.13;13.52;;;;;;;13.57;100.00;97541.34;10336383;28;20106;-59
2022/10/02 04:35:42;;;;;;;22.83;14.02;;;;;;;13.64;100.00;97549.94;10337003;28;20089;-59
2022/10/02 04:40:50;;;;;;;28.50;14.57;;;;;;;13.73;100.00;97568.03;10337743;28;20519;-59
2022/10/02 04:46:09;;;;;;;29.33;14.70;;;;;;;13.79;100.00;97591.38;10336365;28;20068;-59
2022/10/02 04:51:34;;;;;;;36.53;20.67;;;;;;;13.49;100.00;97617.03;10336330;28;20515;-59
2022/10/02 04:57:11;;;;;;;30.90;19.80;;;;;;;13.24;100.00;97610.47;10336548;28;20084;-59
2022/10/02 05:02:34;;;;;;;30.70;20.75;;;;;;;13.24;100.00;97616.53;10336531;28;20512;-59
2022/10/02 05:07:52;;;;;;;35.60;22.17;;;;;;;13.40;100.00;97632.81;10335624;28;20065;-59
2022/10/02 05:13:03;;;;;;;32.90;23.98;;;;;;;13.54;100.00;97663.94;10336188;28;20476;-59
2022/10/02 05:18:11;;;;;;;33.55;22.98;;;;;;;13.57;100.00;97643.03;10335095;28;20543;-59
2022/10/02 05:23:18;;;;;;;33.28;23.42;;;;;;;13.67;100.00;97646.34;10334932;28;20068;-59
2022/10/02 05:28:28;;;;;;;27.92;17.67;;;;;;;13.85;100.00;97640.84;10334129;28;20552;-59
2022/10/02 05:34:05;;;;;;;19.17;11.65;;;;;;;14.05;100.00;97657.91;10335353;28;20084;-59
2022/10/02 05:39:32;;;;;;;17.92;12.13;;;;;;;14.06;100.00;97664.88;10336754;28;20073;-59
2022/10/02 05:44:42;;;;;;;16.58;9.38;;;;;;;14.03;100.00;97670.13;10361719;28;20472;-59
2022/10/02 05:49:51;;;;;;;28.30;19.05;;;;;;;14.01;100.00;97687.56;10335033;28;20064;-60
2022/10/02 05:54:59;;;;;;;36.33;24.70;;;;;;;14.03;100.00;97681.44;10333986;28;20068;-58
2022/10/02 06:00:25;;;;;;;34.60;24.05;;;;;;;14.10;100.00;97700.44;10333795;28;20598;-58
2022/10/02 06:05:32;;;;;;;35.83;23.90;;;;;;;14.12;100.00;97691.72;10333660;28;20487;-58
2022/10/02 06:10:43;;;;;;;31.73;20.73;;;;;;;14.26;100.00;97704.53;10334069;28;20473;-59
2022/10/02 06:15:50;;;;;;;28.83;18.33;;;;;;;14.39;100.00;97710.44;10333288;28;20131;-59
2022/10/02 06:20:54;;;;;;;27.27;18.48;;;;;;;14.52;100.00;97726.72;10332830;28;20448;-59
2022/10/02 06:25:59;;;;;;;46.35;31.20;;;;;;;14.66;100.00;97740.41;10334776;28;20065;-59
2022/10/02 06:31:14;;;;;;;45.78;28.50;;;;;;;14.56;100.00;97739.72;10334816;28;20065;-60
2022/10/02 06:36:22;;;;;;;29.25;21.40;;;;;;;14.68;100.00;97733.41;10328855;28;20081;-59
2022/10/02 06:41:30;;;;;;;29.00;20.00;;;;;;;14.85;100.00;97753.19;10332229;28;20497;-59
2022/10/02 06:46:43;;;;;;;23.45;17.15;;;;;;;14.98;100.00;97758.16;10367250;28;20491;-59
2022/10/02 06:51:53;;;;;;;13.23;8.93;;;;;;;15.07;100.00;97758.88;10331513;28;20065;-59
2022/10/02 06:57:13;;;;;;;12.63;8.95;;;;;;;15.12;100.00;97773.56;10331840;28;20058;-60
2022/10/02 07:02:21;;;;;;;10.70;6.82;;;;;;;15.22;96.00;97779.50;10330579;28;20061;-59
2022/10/02 07:07:29;;;;;;;6.28;4.90;;;;;;;15.30;90.99;97784.59;10328568;28;20532;-59
2022/10/02 07:12:53;;;;;;;3.67;3.38;;;;;;;15.53;86.28;97784.09;10328569;28;20057;-58
2022/10/02 07:17:52;;;;;;;4.13;2.92;;;;;;;15.76;81.33;97792.34;10330082;28;20065;-58
2022/10/02 07:23:11;;;;;;;;;;;;;;;15.97;74.44;97788.44;10332973;28;20029;-59
2022/10/02 07:28:26;;;;;;;3.50;2.42;;;;;;;16.24;74.67;97788.72;10336344;28;19944;-58
2022/10/02 07:34:00;;;;;;;2.33;2.13;;;;;;;16.37;74.06;97787.53;10335459;28;20091;-59
2022/10/02 07:39:08;;;;;;;2.38;1.65;;;;;;;16.54;63.50;97799.38;10335771;28;20021;-58
2022/10/02 07:44:42;;;;;;;2.05;1.20;;;;;;;16.67;52.36;97809.50;10335478;28;20452;-58
2022/10/02 07:50:22;;;;;;;5.55;1.15;;;;;;;17.05;52.08;97817.31;10333944;28;20077;-58
2022/10/02 07:55:22;;;;;;;;;;;;;;;17.12;50.12;97818.88;10332565;28;20109;-59
2022/10/02 08:00:27;;;;;;;2.83;1.33;;;;;;;17.24;47.28;97800.22;10335256;28;19956;-58
2022/10/02 08:05:43;;;;;;;1.77;1.58;;;;;;;17.28;46.57;97817.56;10335183;28;20038;-59
2022/10/02 08:10:47;;;;;;;2.72;2.10;;;;;;;17.38;45.98;97814.69;10334901;28;20076;-59
2022/10/02 08:15:51;;;;;;;34.05;21.15;;;;;;;17.41;46.18;97810.25;10335008;28;20460;-59
2022/10/02 08:20:51;;;;;;;8.45;5.95;;;;;;;17.61;46.68;97812.28;10334691;28;20013;-59
2022/10/02 08:25:56;;;;;;;11.15;5.80;;;;;;;17.67;43.13;97821.78;10332815;28;20556;-59
2022/10/02 08:30:57;;;;;;;5.13;2.58;;;;;;;17.63;43.84;97804.38;10330764;28;20077;-59
2022/10/02 08:36:19;;;;;;;13.75;8.00;;;;;;;17.98;44.41;97833.13;10331062;28;20088;-59
2022/10/02 08:41:36;;;;;;;20.52;11.90;;;;;;;18.00;42.65;97843.59;10329939;28;20076;-59
2022/10/02 08:46:55;;;;;;;8.43;5.05;;;;;;;18.04;42.89;97842.59;10329688;28;20084;-59
2022/10/02 08:52:09;;;;;;;13.38;9.13;;;;;;;18.07;43.03;97837.25;10331177;28;20069;-59
2022/10/02 08:57:20;;;;;;;6.22;4.50;;;;;;;18.13;42.89;97821.31;10330775;28;20107;-59
2022/10/02 09:02:26;;;;;;;3.58;1.65;;;;;;;18.33;41.46;97831.19;10329488;28;20066;-59
2022/10/02 09:07:30;;;;;;;7.75;5.97;;;;;;;18.28;42.10;97808.63;10308656;28;20088;-59
2022/10/02 09:13:07;;;;;;;26.60;21.00;;;;;;;18.14;41.98;97812.50;10336088;28;20069;-59
2022/10/02 09:18:34;;;;;;;8.68;5.20;;;;;;;18.33;42.22;97811.94;10344841;28;20048;-59
2022/10/02 09:23:51;;;;;;;3.72;2.53;;;;;;;18.32;41.88;97818.97;10345665;28;20061;-59
2022/10/02 09:29:03;;;;;;;23.42;15.68;;;;;;;18.24;41.99;97823.59;10355391;28;20076;-59
2022/10/02 09:34:18;;;;;;;10.25;5.75;;;;;;;18.38;41.04;97815.28;10375746;28;20562;-59
2022/10/02 09:40:11;;;;;;;11.40;7.40;;;;;;;18.70;42.92;97822.19;10375857;28;20075;-59
2022/10/02 09:45:51;;;;;;;3.40;2.45;;;;;;;18.63;41.63;97825.03;10351153;28;20072;-59
2022/10/02 09:51:15;;;;;;;6.82;2.10;;;;;;;18.53;41.51;97820.06;10372007;28;20069;-59
2022/10/02 09:56:46;;;;;;;5.07;2.58;;;;;;;18.42;41.72;97822.19;10372716;28;20068;-59
2022/10/02 10:02:01;;;;;;;4.88;2.00;;;;;;;18.73;41.47;97795.78;10374054;28;20067;-59
2022/10/02 10:07:37;;;;;;;2.45;1.83;;;;;;;18.87;40.04;97818.13;10376551;28;20064;-59
2022/10/02 10:12:48;;;;;;;3.53;3.03;;;;;;;19.10;39.79;97807.69;10375796;28;20060;-59
2022/10/02 10:17:58;;;;;;;2.33;1.48;;;;;;;19.18;38.63;97781.13;10376193;28;20064;-59
2022/10/02 10:23:14;;;;;;;1.55;1.35;;;;;;;19.20;40.15;97787.19;10375457;28;20082;-59
2022/10/02 10:28:32;;;;;;;4.97;1.73;;;;;;;19.28;39.18;97781.69;10379050;28;20067;-59
2022/10/02 10:34:08;;;;;;;2.25;1.77;;;;;;;19.41;37.83;97791.69;10357388;28;20073;-59
2022/10/02 10:39:07;;;;;;;2.35;1.20;;;;;;;19.37;38.25;97797.09;10336439;28;20056;-59
2022/10/02 10:44:24;;;;;;;2.47;1.50;;;;;;;19.39;38.46;97817.22;10317357;28;20029;-59
2022/10/02 10:49:53;;;;;;;0.80;0.77;;;;;;;19.38;37.60;97801.47;10298671;28;20068;-59
2022/10/02 10:55:14;;;;;;;2.47;1.38;;;;;;;19.39;38.12;97800.53;10302473;28;20500;-59
2022/10/02 11:00:23;;;;;;;3.28;2.28;;;;;;;19.35;37.87;97791.91;10297316;28;20072;-59
2022/10/02 11:06:13;;;;;;;2.03;1.67;;;;;;;19.55;38.59;97777.16;10347841;28;20508;-59
2022/10/02 11:11:40;;;;;;;2.20;1.60;;;;;;;19.49;37.36;97785.31;10347879;28;20065;-59
2022/10/02 11:17:03;;;;;;;6.15;4.07;;;;;;;19.64;38.15;97775.06;10363825;28;20091;-59
2022/10/02 11:22:33;;;;;;;2.38;1.50;;;;;;;19.94;37.11;97772.22;10375286;28;20083;-58
2022/10/02 11:27:33;;;;;;;5.90;4.20;;;;;;;20.16;37.76;97779.28;10371984;28;20084;-59
2022/10/02 11:32:41;;;;;;;1.80;1.45;;;;;;;20.17;36.11;97776.59;10364012;28;20558;-59
2022/10/02 11:37:50;;;;;;;4.50;2.80;;;;;;;20.11;36.92;97768.91;10331921;28;20168;-59
2022/10/02 11:43:14;;;;;;;2.58;1.00;;;;;;;20.41;35.97;97761.59;10332732;28;20541;-59
2022/10/02 11:48:49;;;;;;;3.97;2.88;;;;;;;20.44;36.82;97761.47;10332401;28;20079;-59
2022/10/02 11:54:25;;;;;;;2.97;1.80;;;;;;;20.65;36.68;97779.97;10331959;28;20069;-59
2022/10/02 11:59:36;;;;;;;6.32;4.95;;;;;;;20.63;38.00;97779.16;10332334;28;20065;-59
2022/10/02 12:04:45;;;;;;;4.65;2.83;;;;;;;20.66;37.98;97782.56;10331704;28;20080;-59
2022/10/02 12:10:12;;;;;;;2.78;1.98;;;;;;;20.69;36.40;97781.56;10331899;28;20487;-59
2022/10/02 12:15:38;;;;;;;4.32;1.83;;;;;;;20.41;37.89;97776.56;10331500;28;20073;-59
2022/10/02 12:31:54;;;;;;;3.10;1.60;;;;;;;20.07;38.31;97772.56;10331605;28;20085;-59
2022/10/02 12:37:10;;;;;;;4.63;3.92;;;;;;;20.15;39.63;97761.75;10337972;28;20079;-59
2022/10/02 12:42:20;;;;;;;6.15;4.32;;;;;;;20.05;38.79;97758.63;10332681;28;20503;-59
2022/10/02 12:47:41;;;;;;;3.75;2.20;;;;;;;19.97;37.80;97751.00;10338424;28;20067;-59
2022/10/02 12:52:42;;;;;;;14.48;10.77;;;;;;;19.82;38.40;97763.00;10338300;28;20069;-59
2022/10/02 12:58:13;;;;;;;3.65;1.33;;;;;;;19.76;38.54;97770.28;10338185;28;20061;-59
2022/10/02 13:03:30;;;;;;;1.98;1.73;;;;;;;19.79;38.29;97772.78;10338283;28;20503;-59
2022/10/02 13:08:40;;;;;;;1.40;1.30;;;;;;;19.69;37.85;97745.09;10337984;28;20542;-59
2022/10/02 13:13:58;;;;;;;2.72;2.05;;;;;;;19.84;38.19;97750.66;10338172;28;20065;-59
2022/10/02 13:19:04;;;;;;;9.93;6.25;;;;;;;20.01;37.68;97757.88;10337894;28;20073;-59
2022/10/02 13:24:18;;;;;;;9.18;5.80;;;;;;;20.05;37.88;97758.63;10337882;28;20080;-59
2022/10/02 13:29:36;;;;;;;12.88;8.93;;;;;;;20.22;37.81;97729.84;10340915;28;20053;-59
2022/10/02 13:34:53;;;;;;;7.55;5.18;;;;;;;20.37;35.94;97765.25;10340263;28;20178;-59
2022/10/02 13:39:52;;;;;;;5.78;3.40;;;;;;;20.35;35.51;97759.16;10340034;28;20037;-59
2022/10/02 13:45:19;;;;;;;3.83;2.20;;;;;;;20.38;36.79;97766.97;10339079;28;20455;-58
2022/10/02 13:50:25;;;;;;;9.65;7.15;;;;;;;20.24;37.15;97772.78;10340130;28;20449;-58
2022/10/02 13:55:28;;;;;;;3.45;2.97;;;;;;;19.99;36.88;97774.66;10339593;28;20073;-59
2022/10/02 14:00:36;;;;;;;2.42;2.05;;;;;;;19.63;36.56;97777.78;10339174;28;20044;-58
2022/10/02 14:05:53;;;;;;;2.23;1.70;;;;;;;19.21;36.90;97779.25;10339135;28;20069;-59
2022/10/02 14:11:19;;;;;;;3.20;2.90;;;;;;;19.12;37.92;97766.41;10339299;28;20041;-59
2022/10/02 14:16:51;;;;;;;3.45;3.15;;;;;;;19.03;38.44;97762.34;10338923;28;20052;-59
2022/10/02 14:22:17;;;;;;;8.50;6.22;;;;;;;19.20;38.70;97745.09;10338314;28;20057;-58
2022/10/02 14:27:40;;;;;;;2.45;1.92;;;;;;;19.21;37.88;97754.72;10334239;28;20154;-59
2022/10/02 14:32:57;;;;;;;5.05;4.18;;;;;;;19.32;38.36;97755.19;10334201;28;20088;-58
2022/10/02 14:38:24;;;;;;;5.82;4.55;;;;;;;19.23;38.67;97755.53;10334239;28;20061;-59
2022/10/02 14:43:34;;;;;;;3.88;3.00;;;;;;;19.27;38.54;97746.59;10333932;28;20437;-58
2022/10/02 14:49:10;;;;;;;2.42;2.20;;;;;;;19.26;38.33;97737.00;10327799;28;20060;-59
2022/10/02 14:54:18;;;;;;;4.38;3.72;;;;;;;19.35;39.17;97736.66;10335381;28;20065;-59
2022/10/02 14:59:53;;;;;;;2.08;1.88;;;;;;;19.23;38.76;97729.22;10331478;28;20060;-58
2022/10/02 15:05:34;;;;;;;4.40;3.40;;;;;;;19.21;39.23;97725.78;10331623;28;20057;-59
2022/10/02 15:10:37;;;;;;;3.60;2.60;;;;;;;19.19;39.48;97731.09;10332055;28;20076;-58
2022/10/02 15:15:44;;;;;;;7.57;6.10;;;;;;;19.23;39.96;97731.84;10331243;28;20076;-59
2022/10/02 15:21:25;;;;;;;18.40;15.15;;;;;;;19.01;40.26;97735.22;10350302;28;20065;-59
2022/10/02 15:26:43;;;;;;;5.05;4.55;;;;;;;19.05;40.88;97722.84;10325158;28;20069;-59
2022/10/02 15:32:20;;;;;;;3.47;2.47;;;;;;;18.99;41.26;97738.81;10329708;28;20073;-59
2022/10/02 15:37:43;;;;;;;3.63;3.15;;;;;;;18.85;42.24;97735.81;10330338;28;20057;-58
2022/10/02 15:42:55;;;;;;;5.43;2.85;;;;;;;18.75;43.16;97746.66;10330907;28;20128;-59
2022/10/02 15:48:04;;;;;;;4.45;2.90;;;;;;;18.61;44.40;97739.19;10330570;28;20073;-59
2022/10/02 15:53:39;;;;;;;4.87;3.03;;;;;;;18.37;45.53;97737.41;10331227;28;20493;-58
2022/10/02 15:59:05;;;;;;;3.90;3.50;;;;;;;18.11;46.68;97730.34;10332018;28;20288;-58
2022/10/02 16:04:32;;;;;;;6.32;4.47;;;;;;;17.82;48.20;97731.25;10331817;28;20845;-59
2022/10/02 16:10:01;;;;;;;7.32;5.03;;;;;;;17.53;50.15;97738.19;10334967;28;20077;-58
2022/10/02 16:15:19;;;;;;;6.80;4.47;;;;;;;17.18;51.29;97734.81;10339521;28;20069;-59
2022/10/02 16:20:40;;;;;;;7.90;4.57;;;;;;;16.83;51.96;97734.00;10339885;28;20068;-59
2022/10/02 16:25:39;;;;;;;5.47;4.70;;;;;;;16.50;53.19;97740.94;10341566;28;20061;-58
2022/10/02 16:30:58;;;;;;;;;;;;;;;16.21;54.11;97741.66;10343094;28;20032;-58
2022/10/02 16:36:12;;;;;;;11.02;6.50;;;;;;;15.90;55.16;97760.66;10341741;28;19956;-58
2022/10/02 16:41:16;;;;;;;27.13;17.80;;;;;;;15.63;56.98;97749.03;10342180;28;20069;-58
2022/10/02 16:46:48;;;;;;;12.02;8.57;;;;;;;15.40;59.20;97757.34;10342093;28;20461;-58
2022/10/02 16:51:56;;;;;;;11.80;6.70;;;;;;;15.16;60.77;97762.19;10341977;28;20543;-58
2022/10/02 16:57:13;;;;;;;14.97;9.00;;;;;;;14.97;63.23;97771.28;10341635;28;20460;-59
2022/10/02 17:02:35;;;;;;;18.20;11.82;;;;;;;14.80;63.67;97768.94;10341419;28;20064;-58
2022/10/02 17:07:56;;;;;;;18.23;11.70;;;;;;;14.59;64.78;97772.75;10341342;28;20060;-58
2022/10/02 17:13:19;;;;;;;14.95;11.77;;;;;;;14.52;64.78;97773.72;10341623;28;20075;-58
2022/10/02 17:18:25;;;;;;;17.27;11.55;;;;;;;14.44;64.74;97784.31;10340104;28;20508;-58
2022/10/02 17:23:37;;;;;;;14.52;8.75;;;;;;;14.38;65.37;97781.78;10338996;28;20437;-58
2022/10/02 17:28:52;;;;;;;11.43;8.35;;;;;;;14.29;65.06;97792.38;10336760;28;20531;-58
2022/10/02 17:33:56;;;;;;;9.98;6.88;;;;;;;14.26;64.87;97785.44;10344359;28;20075;-58
2022/10/02 17:39:17;;;;;;;7.93;6.65;;;;;;;14.25;65.16;97780.28;10376672;28;20068;-58
2022/10/02 17:44:41;;;;;;;13.32;7.20;;;;;;;14.18;65.60;97772.53;10377279;28;20114;-58
2022/10/02 17:49:45;;;;;;;11.48;6.95;;;;;;;14.13;65.87;97760.44;10376806;28;20068;-58
2022/10/02 18:01:05;;;;;;;9.15;7.00;;;;;;;13.88;66.81;97758.19;10376548;28;20064;-58
2022/10/02 18:06:10;;;;;;;12.20;8.15;;;;;;;13.77;67.71;97758.34;10376389;28;20061;-58
2022/10/02 18:11:18;;;;;;;9.63;6.53;;;;;;;13.65;67.55;97762.84;10374390;28;20130;-58
2022/10/02 18:16:35;;;;;;;10.20;5.85;;;;;;;13.50;67.98;97763.88;10375943;28;20492;-58
2022/10/02 18:22:01;;;;;;;8.85;6.38;;;;;;;13.29;70.44;97765.88;10375704;28;20072;-58
2022/10/02 18:27:21;;;;;;;8.65;6.43;;;;;;;13.11;72.58;97756.50;10336299;28;20065;-58
2022/10/02 18:32:36;;;;;;;10.98;6.65;;;;;;;12.90;73.20;97751.53;10329734;28;20132;-58
2022/10/02 18:37:41;;;;;;;9.35;5.95;;;;;;;12.81;74.03;97762.03;10332502;28;20508;-58
2022/10/02 18:43:03;;;;;;;10.13;6.55;;;;;;;12.75;73.82;97769.94;10332174;28;20516;-58
2022/10/02 18:48:36;;;;;;;8.68;6.30;;;;;;;12.71;74.24;97769.94;10332118;28;20068;-58
2022/10/02 18:53:56;;;;;;;10.20;7.30;;;;;;;12.62;74.87;97764.81;10332196;28;20061;-58
2022/10/02 18:59:01;;;;;;;;;;;;;;;12.57;75.32;97766.59;10364527;28;20068;-58
2022/10/02 19:04:08;;;;;;;16.02;8.68;;;;;;;12.47;76.25;97762.34;10372873;28;19944;-58
2022/10/02 19:09:07;;;;;;;13.90;9.57;;;;;;;12.33;77.38;97764.22;10371649;28;20471;-58
2022/10/02 19:14:15;;;;;;;13.30;8.02;;;;;;;12.24;78.75;97763.38;10372410;28;20488;-58
2022/10/02 19:19:23;;;;;;;9.35;7.00;;;;;;;12.14;78.48;97766.06;10371733;28;20074;-58
2022/10/02 19:24:26;;;;;;;9.57;6.65;;;;;;;12.01;78.94;97763.53;10361415;28;20048;-58
2022/10/02 19:29:40;;;;;;;10.45;7.57;;;;;;;11.95;79.94;97773.13;10331531;28;20068;-58
2022/10/02 19:34:41;;;;;;;12.63;6.25;;;;;;;11.91;79.28;97771.41;10330510;28;20085;-58
2022/10/02 19:39:47;;;;;;;12.27;6.38;;;;;;;11.86;80.04;97774.91;10330087;28;20069;-58
2022/10/02 19:44:55;;;;;;;9.18;6.75;;;;;;;11.80;81.10;97779.25;10328643;28;20069;-58
2022/10/02 19:49:57;;;;;;;12.27;6.60;;;;;;;11.78;80.24;97768.00;10330647;28;20068;-58
2022/10/02 19:54:59;;;;;;;11.18;7.22;;;;;;;11.74;80.45;97761.13;10329845;28;20075;-58
2022/10/02 19:59:59;;;;;;;11.63;7.95;;;;;;;11.68;80.89;97760.25;10329920;28;20076;-58
2022/10/02 20:05:03;;;;;;;12.63;8.88;;;;;;;11.66;81.71;97761.13;10330680;28;20504;-58
2022/10/02 20:10:21;;;;;;;15.63;11.07;;;;;;;11.49;83.10;97757.75;10329776;28;20484;-58
2022/10/02 20:20:54;;;;;;;17.52;12.95;;;;;;;11.34;84.04;97759.56;10330476;28;20480;-58
2022/10/02 20:25:57;;;;;;;21.40;13.82;;;;;;;11.25;83.98;97765.66;10329233;28;20485;-58
2022/10/02 20:31:10;;;;;;;17.15;13.48;;;;;;;11.17;83.93;97782.13;10329483;28;20579;-58
2022/10/02 20:36:20;;;;;;;15.95;12.18;;;;;;;11.09;84.87;97782.16;10329463;28;20081;-58
2022/10/02 20:41:27;;;;;;;15.85;12.15;;;;;;;11.06;84.64;97765.69;10329758;28;20077;-58
2022/10/02 20:46:34;;;;;;;17.92;12.13;;;;;;;11.02;85.04;97747.53;10329069;28;20507;-58
2022/10/02 20:51:38;;;;;;;15.90;12.18;;;;;;;10.97;84.75;97745.84;10329458;28;20480;-58
2022/10/02 20:56:39;;;;;;;16.92;12.02;;;;;;;10.86;85.72;97751.00;10333730;28;20073;-58
2022/10/02 21:01:41;;;;;;;17.13;12.75;;;;;;;10.78;87.27;97757.97;10336874;28;20072;-58
2022/10/02 21:06:59;;;;;;;17.33;12.70;;;;;;;10.65;87.29;97758.84;10335668;28;20060;-58
2022/10/02 21:12:10;;;;;;;16.45;14.57;;;;;;;10.52;88.34;97755.38;10336181;28;20458;-58
2022/10/02 21:17:46;;;;;;;22.13;16.17;;;;;;;10.38;89.53;97763.19;10335495;28;20474;-58
2022/10/02 21:23:06;;;;;;;19.25;16.08;;;;;;;10.38;89.03;97758.00;10335431;28;20069;-58
2022/10/02 21:28:24;;;;;;;;;;;;;;;10.28;89.29;97771.81;10340092;28;20072;-58
2022/10/02 21:33:30;;;;;;;20.35;15.25;;;;;;;10.22;89.74;97762.31;10339219;28;20368;-58
2022/10/02 21:38:56;;;;;;;18.17;14.90;;;;;;;10.23;89.60;97765.78;10338237;28;20070;-58
2022/10/02 21:44:17;;;;;;;18.48;14.90;;;;;;;10.19;89.87;97755.41;10338239;28;20053;-58
2022/10/02 21:49:46;;;;;;;18.65;15.63;;;;;;;10.15;89.95;97743.28;10339134;28;20072;-58
2022/10/02 21:55:01;;;;;;;21.30;18.03;;;;;;;10.09;90.23;97764.03;10338050;28;20496;-58
2022/10/02 22:00:06;;;;;;;19.15;16.92;;;;;;;10.00;91.31;97761.41;10337306;28;20499;-58
2022/10/02 22:05:51;;;;;;;20.05;17.83;;;;;;;9.97;90.63;97753.66;10337496;28;20061;-58
2022/10/02 22:11:18;;;;;;;23.35;17.75;;;;;;;9.97;90.65;97756.22;10334719;28;20068;-58
2022/10/02 22:16:17;;;;;;;20.30;17.95;;;;;;;9.91;90.95;97748.44;10333930;28;20061;-58
2022/10/02 22:21:19;;;;;;;20.48;18.23;;;;;;;9.80;92.43;97755.34;10334977;28;20073;-58
2022/10/02 22:26:42;;;;;;;20.25;18.05;;;;;;;9.75;92.05;97747.56;10334363;28;20579;-58
2022/10/02 22:38:12;;;;;;;17.27;14.88;;;;;;;9.63;92.54;97735.47;10333117;28;20069;-58
2022/10/02 22:43:41;;;;;;;18.67;14.57;;;;;;;9.59;92.26;97728.53;10332510;28;20057;-58
2022/10/02 22:48:48;;;;;;;14.85;11.63;;;;;;;9.52;92.27;97719.88;10332355;28;20065;-58
2022/10/02 22:54:07;;;;;;;13.55;12.15;;;;;;;9.48;92.27;97714.69;10332082;28;20068;-58
2022/10/02 22:59:18;;;;;;;13.63;10.13;;;;;;;9.49;92.77;97700.88;10331825;28;20080;-58
2022/10/02 23:04:36;;;;;;;13.40;10.35;;;;;;;9.45;92.92;97712.09;10333431;28;20506;-58
2022/10/02 23:09:44;;;;;;;11.93;10.60;;;;;;;9.42;92.90;97696.53;10332948;28;20764;-58
2022/10/02 23:14:44;;;;;;;14.02;11.52;;;;;;;9.37;93.25;97700.81;10332057;28;20080;-58
2022/10/02 23:19:48;;;;;;;;;;;;;;;9.32;93.64;97683.56;10330767;28;20477;-58
2022/10/02 23:25:14;;;;;;;17.40;12.88;;;;;;;9.32;93.65;97683.56;10331204;28;19944;-58
2022/10/02 23:30:20;;;;;;;18.88;13.23;;;;;;;9.28;94.15;97686.13;10330724;28;20068;-58
2022/10/02 23:35:29;;;;;;;19.33;13.70;;;;;;;9.23;94.14;97692.97;10330709;28;20287;-58
2022/10/02 23:46:03;;;;;;;19.48;15.15;;;;;;;9.14;94.78;97678.31;10331204;28;20464;-58
2022/10/02 23:51:17;;;;;;;17.27;14.75;;;;;;;9.13;95.04;97659.28;10330159;28;20775;-58
2022/10/02 23:56:19;;;;;;;17.65;13.68;;;;;;;9.13;95.28;97668.78;10331128;28;20091;-58
